Temp: 0.3°C   Baro: 1049.5mb
  Wind: 0.0mph   Dir: NW (316°)
  Rain: 0.0mm (0.0mm/hr)
  Solar: 0W/m2  Hum: 93%
 
Bath Spa Weather Historical Data
Daily Summary for November 4, 2019 Units:  Metric    English   Both
Next Day »
Daily Weekly Monthly Yearly Custom
  High: Low: Average:
Temperature: 12.9 °C 6.9 °C 9.7 °C
Dew Point: 10.0 °C 6.0 °C 8 °C
Humidity: 94% 79% 89%
Wind Speed: 13.0km/h 0.0km/h 2.2km/h
Wind Gust: 17.7km/h - -
Wind direction- - SE
Pressure: 988.0 hPa 981.3 hPa -
Precipitation: 0.5 mm    
Historical Graphs
 
 
Tabular Data for November 4, 2019
Time Temperature Dew Point Pressure Wind direction Wind Speed Wind Gust Humidity Rainfall Rate (Hourly) solar
00:00 9.2 °C 7.8 °C 981.9 hPa Calm     91% 0.0 mm 0.00 W/m2
00:05 9.2 °C 7.8 °C 981.9 hPa Calm     91% 0.0 mm 0.00 W/m2
00:10 9.2 °C 7.8 °C 981.9 hPa Calm     91% 0.0 mm 0.00 W/m2
00:15 9.2 °C 7.8 °C 981.9 hPa Calm   1.6 km/h 91% 0.0 mm 0.00 W/m2
00:20 9.2 °C 7.8 °C 981.9 hPa Calm     91% 0.3 mm 0.00 W/m2
00:25 9.2 °C 7.8 °C 981.9 hPa Calm     91% 0.3 mm 0.00 W/m2
00:30 9.3 °C 8.1 °C 981.9 hPa Calm   1.6 km/h 92% 0.3 mm 0.00 W/m2
00:35 9.2 °C 8.0 °C 981.9 hPa Calm   3.2 km/h 92% 0.3 mm 0.00 W/m2
00:40 9.2 °C 8.0 °C 981.9 hPa Calm     92% 0.3 mm 0.00 W/m2
00:45 9.2 °C 8.0 °C 981.9 hPa Calm   1.6 km/h 92% 0.3 mm 0.00 W/m2
00:50 9.1 °C 7.9 °C 981.9 hPa Calm   3.2 km/h 92% 0.3 mm 0.00 W/m2
00:55 9.1 °C 7.9 °C 981.9 hPa Calm   3.2 km/h 92% 0.3 mm 0.00 W/m2
01:00 9.1 °C 7.9 °C 981.9 hPa Calm     92% 0.3 mm 0.00 W/m2
01:05 9.1 °C 7.9 °C 981.9 hPa Calm     92% 0.3 mm 0.00 W/m2
01:10 9.1 °C 7.9 °C 981.9 hPa Calm     92% 0.3 mm 0.00 W/m2
01:15 9.1 °C 7.9 °C 981.6 hPa Calm     92% 0.3 mm 0.00 W/m2
01:20 9.1 °C 7.9 °C 981.6 hPa Calm     92% 0.0 mm 0.00 W/m2
01:25 9.1 °C 7.9 °C 981.6 hPa Calm     92% 0.0 mm 0.00 W/m2
01:30 9.0 °C 7.8 °C 981.6 hPa Calm     92% 0.0 mm 0.00 W/m2
01:35 9.0 °C 7.8 °C 981.9 hPa Calm   3.2 km/h 92% 0.0 mm 0.00 W/m2
01:40 9.0 °C 7.9 °C 981.6 hPa Calm     93% 0.0 mm 0.00 W/m2
01:45 9.0 °C 7.9 °C 981.6 hPa Calm     93% 0.0 mm 0.00 W/m2
01:50 9.0 °C 7.9 °C 981.6 hPa Calm     93% 0.0 mm 0.00 W/m2
01:55 8.9 °C 7.8 °C 981.6 hPa SW 1.4 km/h 4.8 km/h 93% 0.0 mm 0.00 W/m2
02:00 8.9 °C 7.8 °C 981.6 hPa SW 3.2 km/h 3.2 km/h 93% 0.0 mm 0.00 W/m2
02:05 8.9 °C 7.8 °C 981.6 hPa WSW 3.2 km/h 3.2 km/h 93% 0.0 mm 0.00 W/m2
02:10 8.9 °C 7.8 °C 981.6 hPa WSW 1.4 km/h 6.4 km/h 93% 0.0 mm 0.00 W/m2
02:15 8.8 °C 7.7 °C 981.6 hPa Calm   1.6 km/h 93% 0.0 mm 0.00 W/m2
02:20 8.8 °C 7.7 °C 981.6 hPa Calm   4.8 km/h 93% 0.0 mm 0.00 W/m2
02:25 8.8 °C 7.7 °C 981.6 hPa Calm   1.6 km/h 93% 0.0 mm 0.00 W/m2
02:30 8.9 °C 7.8 °C 981.6 hPa Calm   3.2 km/h 93% 0.0 mm 0.00 W/m2
02:35 8.9 °C 7.8 °C 981.6 hPa Calm     93% 0.0 mm 0.00 W/m2
02:40 8.9 °C 7.8 °C 981.6 hPa Calm   1.6 km/h 93% 0.0 mm 0.00 W/m2
02:45 8.9 °C 7.8 °C 981.6 hPa Calm   3.2 km/h 93% 0.0 mm 0.00 W/m2
02:50 8.9 °C 7.8 °C 981.6 hPa Calm     93% 0.0 mm 0.00 W/m2
02:55 8.9 °C 7.8 °C 981.6 hPa Calm   3.2 km/h 93% 0.0 mm 0.00 W/m2
03:00 8.9 °C 7.8 °C 981.6 hPa WSW 1.4 km/h 3.2 km/h 93% 0.0 mm 0.00 W/m2
03:05 8.9 °C 7.8 °C 981.6 hPa Calm   1.6 km/h 93% 0.0 mm 0.00 W/m2
03:10 8.8 °C 7.7 °C 981.6 hPa WSW 4.7 km/h 6.4 km/h 93% 0.0 mm 0.00 W/m2
03:15 8.8 °C 7.7 °C 981.3 hPa Calm   4.8 km/h 93% 0.0 mm 0.00 W/m2
03:20 8.8 °C 7.7 °C 981.3 hPa WSW 1.4 km/h 3.2 km/h 93% 0.0 mm 0.00 W/m2
03:25 8.6 °C 7.5 °C 981.6 hPa WSW 4.7 km/h 6.4 km/h 93% 0.0 mm 0.00 W/m2
03:30 8.6 °C 7.5 °C 981.3 hPa Calm     93% 0.0 mm 0.00 W/m2
03:35 8.6 °C 7.5 °C 981.6 hPa Calm   1.6 km/h 93% 0.0 mm 0.00 W/m2
03:40 8.6 °C 7.5 °C 981.6 hPa Calm   4.8 km/h 93% 0.0 mm 0.00 W/m2
03:45 8.4 °C 7.3 °C 981.6 hPa WSW 3.2 km/h 3.2 km/h 93% 0.0 mm 0.00 W/m2
03:50 8.4 °C 7.3 °C 981.6 hPa Calm   3.2 km/h 93% 0.0 mm 0.00 W/m2
03:55 8.3 °C 7.2 °C 981.6 hPa Calm   3.2 km/h 93% 0.0 mm 0.00 W/m2
04:00 8.2 °C 7.1 °C 981.3 hPa Calm   4.8 km/h 93% 0.0 mm 0.00 W/m2
04:05 8.2 °C 7.1 °C 981.6 hPa Calm     93% 0.0 mm 0.00 W/m2
04:10 8.1 °C 7.0 °C 981.3 hPa Calm     93% 0.0 mm 0.00 W/m2
04:15 8.2 °C 7.1 °C 981.3 hPa WSW 1.4 km/h 3.2 km/h 93% 0.0 mm 0.00 W/m2
04:20 8.2 °C 7.1 °C 981.3 hPa Calm   3.2 km/h 93% 0.0 mm 0.00 W/m2
04:25 8.1 °C 7.0 °C 981.3 hPa Calm   1.6 km/h 93% 0.0 mm 0.00 W/m2
04:30 8.1 °C 7.0 °C 981.3 hPa Calm   4.8 km/h 93% 0.0 mm 0.00 W/m2
04:35 8.1 °C 7.0 °C 981.3 hPa Calm   1.6 km/h 93% 0.0 mm 0.00 W/m2
04:40 8.2 °C 7.1 °C 981.6 hPa WNW 1.4 km/h 6.4 km/h 93% 0.0 mm 0.00 W/m2
04:45 8.1 °C 7.0 °C 981.3 hPa Calm     93% 0.0 mm 0.00 W/m2
04:50 8.1 °C 7.0 °C 981.6 hPa Calm     93% 0.0 mm 0.00 W/m2
04:55 8.0 °C 6.9 °C 981.6 hPa Calm     93% 0.0 mm 0.00 W/m2
05:00 7.9 °C 6.8 °C 981.6 hPa WNW 1.4 km/h 1.6 km/h 93% 0.0 mm 0.00 W/m2
05:05 7.8 °C 6.7 °C 981.6 hPa Calm     93% 0.0 mm 0.00 W/m2
05:10 7.8 °C 6.7 °C 981.6 hPa Calm   1.6 km/h 93% 0.0 mm 0.00 W/m2
05:15 7.8 °C 6.7 °C 981.6 hPa WNW 4.8 km/h 4.8 km/h 93% 0.0 mm 0.00 W/m2
05:20 7.8 °C 6.7 °C 981.6 hPa WNW 1.4 km/h 8.0 km/h 93% 0.3 mm 0.00 W/m2
05:25 7.9 °C 6.8 °C 981.6 hPa WNW 3.2 km/h 6.4 km/h 93% 0.3 mm 0.00 W/m2
05:30 7.9 °C 6.8 °C 981.6 hPa WNW 1.4 km/h 3.2 km/h 93% 0.3 mm 0.00 W/m2
05:35 7.9 °C 6.8 °C 981.6 hPa Calm   6.4 km/h 93% 0.3 mm 0.00 W/m2
05:40 8.1 °C 7.2 °C 981.3 hPa Calm     94% 0.3 mm 0.00 W/m2
05:45 8.1 °C 7.2 °C 981.3 hPa Calm     94% 0.3 mm 0.00 W/m2
05:50 8.0 °C 7.1 °C 981.3 hPa Calm   3.2 km/h 94% 0.3 mm 0.00 W/m2
05:55 7.9 °C 6.8 °C 981.3 hPa WNW 6.4 km/h 6.4 km/h 93% 0.3 mm 0.00 W/m2
06:00 7.9 °C 6.8 °C 981.3 hPa WNW 3.2 km/h 3.2 km/h 93% 0.3 mm 0.00 W/m2
06:05 7.8 °C 6.7 °C 981.3 hPa WNW 1.4 km/h 4.8 km/h 93% 0.3 mm 0.00 W/m2
06:10 7.8 °C 6.7 °C 981.3 hPa Calm   3.2 km/h 93% 0.3 mm 0.00 W/m2
06:15 7.8 °C 6.7 °C 981.3 hPa Calm   1.6 km/h 93% 0.3 mm 0.00 W/m2
06:20 7.8 °C 6.7 °C 981.3 hPa Calm   1.6 km/h 93% 0.0 mm 0.00 W/m2
06:25 7.7 °C 6.8 °C 981.3 hPa WNW 1.4 km/h 4.8 km/h 94% 0.0 mm 0.00 W/m2
06:30 7.6 °C 6.7 °C 981.3 hPa Calm   3.2 km/h 94% 0.0 mm 0.00 W/m2
06:35 7.5 °C 6.4 °C 981.3 hPa WNW 3.2 km/h 6.4 km/h 93% 0.0 mm 0.00 W/m2
06:40 7.5 °C 6.4 °C 981.3 hPa WNW 1.4 km/h 3.2 km/h 93% 0.0 mm 0.00 W/m2
06:45 7.4 °C 6.5 °C 981.3 hPa WNW 3.2 km/h 6.4 km/h 94% 0.0 mm 0.00 W/m2
06:50 7.3 °C 6.4 °C 981.3 hPa Calm     94% 0.0 mm 0.00 W/m2
06:55 7.2 °C 6.1 °C 981.3 hPa Calm   4.8 km/h 93% 0.0 mm 0.00 W/m2
07:00 7.1 °C 6.0 °C 981.3 hPa WNW 4.7 km/h 4.8 km/h 93% 0.0 mm 0.00 W/m2
07:05 7.3 °C 6.2 °C 981.3 hPa Calm     93% 0.0 mm 0.00 W/m2
07:10 7.4 °C 6.5 °C 981.6 hPa Calm     94% 0.0 mm 5.00 W/m2
07:15 7.6 °C 6.7 °C 981.6 hPa WNW 1.4 km/h 3.2 km/h 94% 0.0 mm 5.00 W/m2
07:20 7.2 °C 6.3 °C 981.6 hPa Calm     94% 0.0 mm 7.00 W/m2
07:25 7.2 °C 6.3 °C 981.6 hPa Calm     94% 0.0 mm 11.00 W/m2
07:30 7.1 °C 6.2 °C 981.3 hPa Calm     94% 0.0 mm 12.00 W/m2
07:35 6.9 °C 6.0 °C 981.3 hPa Calm   3.2 km/h 94% 0.0 mm 12.00 W/m2
07:40 7.0 °C 6.1 °C 981.3 hPa Calm   1.6 km/h 94% 0.0 mm 14.00 W/m2
07:45 7.1 °C 6.2 °C 981.3 hPa Calm     94% 0.0 mm 16.00 W/m2
07:50 7.2 °C 6.3 °C 981.3 hPa Calm     94% 0.0 mm 16.00 W/m2
07:55 7.2 °C 6.3 °C 981.3 hPa Calm     94% 0.0 mm 18.00 W/m2
08:00 7.2 °C 6.3 °C 981.3 hPa Calm     94% 0.0 mm 18.00 W/m2
08:05 7.2 °C 6.3 °C 981.3 hPa Calm     94% 0.0 mm 28.00 W/m2
08:10 7.3 °C 6.4 °C 981.3 hPa Calm     94% 0.0 mm 30.00 W/m2
08:15 7.4 °C 6.5 °C 981.3 hPa Calm     94% 0.0 mm 23.00 W/m2
08:20 7.6 °C 6.7 °C 981.3 hPa Calm   1.6 km/h 94% 0.0 mm 19.00 W/m2
08:25 7.7 °C 6.8 °C 981.3 hPa Calm   1.6 km/h 94% 0.0 mm 28.00 W/m2
08:30 7.7 °C 6.8 °C 981.3 hPa Calm   1.6 km/h 94% 0.0 mm 49.00 W/m2
08:35 8.0 °C 7.1 °C 981.3 hPa Calm   3.2 km/h 94% 0.0 mm 72.00 W/m2
08:40 8.2 °C 7.3 °C 981.3 hPa Calm   1.6 km/h 94% 0.0 mm 70.00 W/m2
08:45 8.3 °C 7.4 °C 981.3 hPa Calm   1.6 km/h 94% 0.0 mm 79.00 W/m2
08:50 8.3 °C 7.4 °C 981.6 hPa WNW 1.4 km/h 1.6 km/h 94% 0.0 mm 104.00 W/m2
08:55 8.4 °C 7.5 °C 981.6 hPa Calm     94% 0.0 mm 120.00 W/m2
09:00 8.6 °C 7.7 °C 981.6 hPa NW 3.2 km/h 3.2 km/h 94% 0.0 mm 141.00 W/m2
09:05 8.6 °C 7.7 °C 981.6 hPa NW 3.2 km/h 3.2 km/h 94% 0.0 mm 118.00 W/m2
09:10 8.6 °C 7.7 °C 981.6 hPa Calm   6.4 km/h 94% 0.0 mm 91.00 W/m2
09:15 8.8 °C 7.9 °C 981.6 hPa Calm   3.2 km/h 94% 0.0 mm 84.00 W/m2
09:20 8.8 °C 7.9 °C 981.6 hPa Calm   4.8 km/h 94% 0.0 mm 100.00 W/m2
09:25 8.9 °C 8.0 °C 981.6 hPa Calm   4.8 km/h 94% 0.0 mm 114.00 W/m2
09:30 9.1 °C 8.2 °C 981.6 hPa Calm   1.6 km/h 94% 0.0 mm 123.00 W/m2
09:35 9.2 °C 8.3 °C 981.6 hPa Calm   6.4 km/h 94% 0.0 mm 100.00 W/m2
09:40 9.4 °C 8.5 °C 981.6 hPa Calm   3.2 km/h 94% 0.0 mm 109.00 W/m2
09:45 9.8 °C 8.9 °C 981.6 hPa NNW 3.2 km/h 4.8 km/h 94% 0.0 mm 163.00 W/m2
09:50 10.2 °C 9.3 °C 981.3 hPa Calm   1.6 km/h 94% 0.0 mm 63.00 W/m2
09:55 10.1 °C 9.0 °C 981.3 hPa Calm   4.8 km/h 93% 0.0 mm 60.00 W/m2
10:00 9.8 °C 8.7 °C 981.3 hPa Calm   4.8 km/h 93% 0.0 mm 95.00 W/m2
10:05 9.8 °C 8.6 °C 981.3 hPa ESE 1.4 km/h 4.8 km/h 92% 0.0 mm 192.00 W/m2
10:10 10.0 °C 8.8 °C 981.6 hPa Calm   1.6 km/h 92% 0.0 mm 185.00 W/m2
10:15 10.4 °C 9.2 °C 981.3 hPa Calm   3.2 km/h 92% 0.0 mm 137.00 W/m2
10:20 10.5 °C 9.1 °C 981.6 hPa Calm   1.6 km/h 91% 0.0 mm 127.00 W/m2
10:25 10.5 °C 9.1 °C 981.6 hPa Calm   4.8 km/h 91% 0.0 mm 128.00 W/m2
10:30 10.6 °C 9.2 °C 981.6 hPa ESE 1.4 km/h 1.6 km/h 91% 0.0 mm 163.00 W/m2
10:35 10.8 °C 9.2 °C 981.6 hPa Calm   1.6 km/h 90% 0.0 mm 294.00 W/m2
10:40 11.4 °C 10.0 °C 981.6 hPa Calm   6.4 km/h 91% 0.0 mm 380.00 W/m2
10:45 11.2 °C 9.3 °C 981.6 hPa Calm   6.4 km/h 88% 0.0 mm 343.00 W/m2
10:50 11.2 °C 9.1 °C 981.6 hPa Calm   6.4 km/h 87% 0.0 mm 388.00 W/m2
10:55 11.6 °C 9.5 °C 981.6 hPa ESE 1.4 km/h 4.8 km/h 87% 0.0 mm 260.00 W/m2
11:00 11.8 °C 9.7 °C 981.6 hPa ESE 1.4 km/h 4.8 km/h 87% 0.0 mm 292.00 W/m2
11:05 12.1 °C 10.0 °C 981.3 hPa ESE 6.4 km/h 8.0 km/h 87% 0.0 mm 214.00 W/m2
11:10 11.7 °C 9.3 °C 981.3 hPa SSE 11.1 km/h 11.3 km/h 85% 0.0 mm 399.00 W/m2
11:15 11.7 °C 9.4 °C 981.3 hPa SSE 1.4 km/h 4.8 km/h 86% 0.0 mm 325.00 W/m2
11:20 11.8 °C 9.5 °C 981.3 hPa SSE 7.9 km/h 9.7 km/h 86% 0.0 mm 278.00 W/m2
11:25 11.9 °C 9.5 °C 981.3 hPa SSE 3.2 km/h 6.4 km/h 85% 0.0 mm 153.00 W/m2
11:30 11.8 °C 9.4 °C 981.3 hPa Calm   8.0 km/h 85% 0.0 mm 123.00 W/m2
11:35 11.8 °C 9.4 °C 981.3 hPa Calm   3.2 km/h 85% 0.0 mm 95.00 W/m2
11:40 11.8 °C 9.4 °C 981.3 hPa Calm   9.7 km/h 85% 0.0 mm 127.00 W/m2
11:45 11.7 °C 9.3 °C 981.3 hPa SSE 4.7 km/h 4.8 km/h 85% 0.0 mm 216.00 W/m2
11:50 11.8 °C 9.4 °C 981.3 hPa SSE 6.4 km/h 6.4 km/h 85% 0.0 mm 267.00 W/m2
11:55 12.0 °C 9.4 °C 981.3 hPa SSE 1.4 km/h 6.4 km/h 84% 0.0 mm 207.00 W/m2
12:00 12.4 °C 9.8 °C 981.3 hPa SSE 1.4 km/h 4.8 km/h 84% 0.0 mm 204.00 W/m2
12:05 12.4 °C 9.6 °C 981.3 hPa SSE 1.4 km/h 8.0 km/h 83% 0.0 mm 148.00 W/m2
12:10 12.3 °C 9.5 °C 981.3 hPa SSE 7.9 km/h 8.0 km/h 83% 0.0 mm 137.00 W/m2
12:15 12.0 °C 9.0 °C 981.3 hPa SSE 4.7 km/h 4.8 km/h 82% 0.0 mm 149.00 W/m2
12:20 11.8 °C 8.8 °C 981.3 hPa SSE 3.2 km/h 12.9 km/h 82% 0.0 mm 156.00 W/m2
12:25 11.7 °C 8.9 °C 981.3 hPa SSE 7.9 km/h 9.7 km/h 83% 0.0 mm 123.00 W/m2
12:30 11.7 °C 8.9 °C 981.3 hPa Calm   4.8 km/h 83% 0.0 mm 123.00 W/m2
12:35 11.9 °C 9.3 °C 981.3 hPa Calm     84% 0.0 mm 120.00 W/m2
12:40 11.9 °C 9.3 °C 981.3 hPa South 4.7 km/h 4.8 km/h 84% 0.0 mm 105.00 W/m2
12:45 11.8 °C 9.2 °C 981.3 hPa South 4.7 km/h 4.8 km/h 84% 0.0 mm 139.00 W/m2
12:50 11.8 °C 9.2 °C 981.3 hPa South 3.2 km/h 6.4 km/h 84% 0.0 mm 146.00 W/m2
12:55 11.8 °C 9.2 °C 981.3 hPa Calm   1.6 km/h 84% 0.0 mm 120.00 W/m2
13:00 12.1 °C 9.5 °C 981.3 hPa Calm   4.8 km/h 84% 0.0 mm 207.00 W/m2
13:05 12.5 °C 9.7 °C 981.3 hPa South 4.7 km/h 6.4 km/h 83% 0.0 mm 246.00 W/m2
13:10 12.4 °C 9.4 °C 981.3 hPa South 7.9 km/h 8.0 km/h 82% 0.0 mm 292.00 W/m2
13:15 12.4 °C 9.4 °C 981.3 hPa SSE 4.7 km/h 9.7 km/h 82% 0.0 mm 186.00 W/m2
13:20 12.8 °C 10.0 °C 981.3 hPa SSE 3.2 km/h 11.3 km/h 83% 0.0 mm 374.00 W/m2
13:25 12.9 °C 9.9 °C 981.3 hPa SE 4.7 km/h 9.7 km/h 82% 0.0 mm 120.00 W/m2
13:30 12.4 °C 9.2 °C 981.3 hPa SSE 3.2 km/h 8.0 km/h 81% 0.0 mm 151.00 W/m2
13:35 12.6 °C 9.6 °C 981.3 hPa SE 7.9 km/h 14.5 km/h 82% 0.0 mm 308.00 W/m2
13:40 12.8 °C 9.6 °C 981.3 hPa SE 7.9 km/h 12.9 km/h 81% 0.0 mm 216.00 W/m2
13:45 12.7 °C 9.5 °C 981.3 hPa SSE 13.0 km/h 12.9 km/h 81% 0.0 mm 348.00 W/m2
13:50 12.8 °C 9.6 °C 981.6 hPa SE 6.4 km/h 9.7 km/h 81% 0.0 mm 302.00 W/m2
13:55 12.3 °C 9.1 °C 981.3 hPa South 6.4 km/h 12.9 km/h 81% 0.0 mm 114.00 W/m2
14:00 12.3 °C 9.3 °C 981.6 hPa SSE 3.2 km/h 11.3 km/h 82% 0.0 mm 86.00 W/m2
14:05 12.3 °C 9.3 °C 981.6 hPa SSE 7.9 km/h 12.9 km/h 82% 0.0 mm 98.00 W/m2
14:10 12.1 °C 9.1 °C 981.6 hPa SE 6.4 km/h 11.3 km/h 82% 0.0 mm 69.00 W/m2
14:15 12.1 °C 9.1 °C 981.6 hPa Calm   8.0 km/h 82% 0.0 mm 93.00 W/m2
14:20 12.0 °C 9.0 °C 981.6 hPa SSE 1.4 km/h 16.1 km/h 82% 0.0 mm 91.00 W/m2
14:25 11.9 °C 8.9 °C 981.6 hPa SE 3.2 km/h 9.7 km/h 82% 0.0 mm 199.00 W/m2
14:30 12.1 °C 9.1 °C 981.6 hPa SSE 4.7 km/h 11.3 km/h 82% 0.0 mm 116.00 W/m2
14:35 12.2 °C 9.0 °C 981.6 hPa SSE 13.0 km/h 14.5 km/h 81% 0.0 mm 148.00 W/m2
14:40 12.3 °C 9.1 °C 981.9 hPa SSE 6.4 km/h 9.7 km/h 81% 0.0 mm 142.00 W/m2
14:45 12.3 °C 8.9 °C 981.9 hPa SSE 7.9 km/h 9.7 km/h 80% 0.0 mm 248.00 W/m2
14:50 12.7 °C 9.5 °C 981.9 hPa ESE 7.9 km/h 14.5 km/h 81% 0.0 mm 193.00 W/m2
14:55 12.7 °C 9.2 °C 981.9 hPa SSE 7.9 km/h 11.3 km/h 79% 0.0 mm 167.00 W/m2
15:00 12.6 °C 9.1 °C 981.9 hPa SSE 4.7 km/h 12.9 km/h 79% 0.0 mm 123.00 W/m2
15:05 12.6 °C 9.1 °C 981.9 hPa SSE 3.2 km/h 11.3 km/h 79% 0.0 mm 81.00 W/m2
15:10 12.3 °C 8.8 °C 981.9 hPa SSE 3.2 km/h 9.7 km/h 79% 0.0 mm 65.00 W/m2
15:15 12.2 °C 8.7 °C 981.9 hPa Calm   9.7 km/h 79% 0.0 mm 65.00 W/m2
15:20 12.2 °C 8.7 °C 981.9 hPa SSE 4.7 km/h 11.3 km/h 79% 0.0 mm 46.00 W/m2
15:25 12.1 °C 8.6 °C 981.9 hPa SSE 1.4 km/h 4.8 km/h 79% 0.0 mm 33.00 W/m2
15:30 12.1 °C 8.8 °C 981.9 hPa SSE 3.2 km/h 8.0 km/h 80% 0.0 mm 32.00 W/m2
15:35 12.0 °C 8.7 °C 981.9 hPa SE 1.4 km/h 9.7 km/h 80% 0.0 mm 28.00 W/m2
15:40 11.9 °C 8.6 °C 981.9 hPa SE 3.2 km/h 8.0 km/h 80% 0.0 mm 21.00 W/m2
15:45 11.8 °C 8.6 °C 982.3 hPa SE 1.4 km/h 11.3 km/h 81% 0.0 mm 23.00 W/m2
15:50 11.7 °C 8.5 °C 982.3 hPa SE 4.7 km/h 8.0 km/h 81% 0.0 mm 28.00 W/m2
15:55 11.7 °C 8.5 °C 982.3 hPa SE 4.7 km/h 6.4 km/h 81% 0.0 mm 25.00 W/m2
16:00 11.6 °C 8.6 °C 982.3 hPa SE 4.7 km/h 8.0 km/h 82% 0.0 mm 26.00 W/m2
16:05 11.6 °C 8.6 °C 982.3 hPa SE 1.4 km/h 6.4 km/h 82% 0.0 mm 25.00 W/m2
16:10 11.5 °C 8.5 °C 982.3 hPa SE 1.4 km/h 8.0 km/h 82% 0.0 mm 21.00 W/m2
16:15 11.4 °C 8.4 °C 982.3 hPa SE 3.2 km/h 6.4 km/h 82% 0.0 mm 16.00 W/m2
16:20 11.4 °C 8.6 °C 982.3 hPa SE 1.4 km/h 4.8 km/h 83% 0.0 mm 14.00 W/m2
16:25 11.3 °C 8.5 °C 982.6 hPa Calm   3.2 km/h 83% 0.0 mm 11.00 W/m2
16:30 11.2 °C 8.4 °C 982.6 hPa Calm   6.4 km/h 83% 0.0 mm 7.00 W/m2
16:35 11.1 °C 8.5 °C 982.6 hPa Calm     84% 0.0 mm 5.00 W/m2
16:40 11.0 °C 8.4 °C 982.6 hPa Calm   1.6 km/h 84% 0.0 mm 0.00 W/m2
16:45 10.8 °C 8.2 °C 982.6 hPa Calm   3.2 km/h 84% 0.0 mm 0.00 W/m2
16:50 10.7 °C 8.3 °C 982.6 hPa Calm   3.2 km/h 85% 0.0 mm 0.00 W/m2
16:55 10.5 °C 8.1 °C 982.6 hPa SE 1.4 km/h 1.6 km/h 85% 0.0 mm 0.00 W/m2
17:00 10.4 °C 8.0 °C 982.6 hPa Calm   6.4 km/h 85% 0.0 mm 0.00 W/m2
17:05 10.3 °C 8.1 °C 982.6 hPa Calm   6.4 km/h 86% 0.0 mm 0.00 W/m2
17:10 10.3 °C 8.1 °C 983.0 hPa Calm   1.6 km/h 86% 0.0 mm 0.00 W/m2
17:15 10.2 °C 8.0 °C 983.0 hPa Calm   1.6 km/h 86% 0.0 mm 0.00 W/m2
17:20 10.1 °C 7.9 °C 983.0 hPa Calm   4.8 km/h 86% 0.0 mm 0.00 W/m2
17:25 10.0 °C 7.9 °C 983.0 hPa ENE 4.7 km/h 12.9 km/h 87% 0.0 mm 0.00 W/m2
17:30 10.0 °C 7.9 °C 983.0 hPa ENE 4.7 km/h 4.8 km/h 87% 0.0 mm 0.00 W/m2
17:35 10.0 °C 7.9 °C 983.0 hPa NE 1.4 km/h 11.3 km/h 87% 0.0 mm 0.00 W/m2
17:40 9.9 °C 7.8 °C 983.0 hPa NE 1.4 km/h 6.4 km/h 87% 0.0 mm 0.00 W/m2
17:45 9.9 °C 7.8 °C 983.3 hPa NE 3.2 km/h 8.0 km/h 87% 0.0 mm 0.00 W/m2
17:50 9.8 °C 7.7 °C 983.3 hPa Calm   4.8 km/h 87% 0.0 mm 0.00 W/m2
17:55 9.6 °C 7.5 °C 983.3 hPa NE 4.7 km/h 4.8 km/h 87% 0.0 mm 0.00 W/m2
18:00 9.6 °C 7.7 °C 983.3 hPa Calm   6.4 km/h 88% 0.0 mm 0.00 W/m2
18:05 9.6 °C 7.7 °C 983.3 hPa Calm   4.8 km/h 88% 0.0 mm 0.00 W/m2
18:10 9.5 °C 7.6 °C 983.3 hPa NE 3.2 km/h 4.8 km/h 88% 0.0 mm 0.00 W/m2
18:15 9.5 °C 7.6 °C 983.6 hPa Calm   8.0 km/h 88% 0.0 mm 0.00 W/m2
18:20 9.4 °C 7.5 °C 983.6 hPa NE 1.4 km/h 3.2 km/h 88% 0.0 mm 0.00 W/m2
18:25 9.4 °C 7.5 °C 983.6 hPa Calm     88% 0.0 mm 0.00 W/m2
18:30 9.4 °C 7.7 °C 983.6 hPa NE 1.4 km/h 6.4 km/h 89% 0.0 mm 0.00 W/m2
18:35 9.4 °C 7.7 °C 983.6 hPa Calm   4.8 km/h 89% 0.0 mm 0.00 W/m2
18:40 9.3 °C 7.6 °C 983.6 hPa Calm   4.8 km/h 89% 0.0 mm 0.00 W/m2
18:45 9.3 °C 7.6 °C 983.6 hPa Calm   6.4 km/h 89% 0.0 mm 0.00 W/m2
18:50 9.3 °C 7.6 °C 983.6 hPa ENE 1.4 km/h 3.2 km/h 89% 0.0 mm 0.00 W/m2
18:55 9.3 °C 7.6 °C 984.0 hPa Calm   1.6 km/h 89% 0.0 mm 0.00 W/m2
19:00 9.2 °C 7.5 °C 984.0 hPa Calm   1.6 km/h 89% 0.0 mm 0.00 W/m2
19:05 9.2 °C 7.5 °C 984.0 hPa ENE 1.4 km/h 3.2 km/h 89% 0.0 mm 0.00 W/m2
19:10 9.2 °C 7.5 °C 984.0 hPa ENE 4.7 km/h 4.8 km/h 89% 0.0 mm 0.00 W/m2
19:15 9.2 °C 7.5 °C 984.3 hPa Calm   8.0 km/h 89% 0.0 mm 0.00 W/m2
19:20 9.2 °C 7.5 °C 984.3 hPa ENE 4.7 km/h 4.8 km/h 89% 0.0 mm 0.00 W/m2
19:25 9.1 °C 7.5 °C 984.3 hPa Calm   4.8 km/h 90% 0.0 mm 0.00 W/m2
19:30 9.1 °C 7.5 °C 984.3 hPa Calm   3.2 km/h 90% 0.0 mm 0.00 W/m2
19:35 9.0 °C 7.4 °C 984.6 hPa ENE 1.4 km/h 3.2 km/h 90% 0.0 mm 0.00 W/m2
19:40 9.0 °C 7.4 °C 984.6 hPa Calm     90% 0.0 mm 0.00 W/m2
19:45 9.0 °C 7.4 °C 984.6 hPa Calm     90% 0.0 mm 0.00 W/m2
19:50 8.9 °C 7.3 °C 984.6 hPa ENE 1.4 km/h 1.6 km/h 90% 0.0 mm 0.00 W/m2
19:55 9.1 °C 7.5 °C 984.6 hPa Calm   1.6 km/h 90% 0.0 mm 0.00 W/m2
20:00 9.1 °C 7.5 °C 984.6 hPa ENE 1.4 km/h 3.2 km/h 90% 0.0 mm 0.00 W/m2
20:05 9.1 °C 7.5 °C 985.0 hPa Calm   3.2 km/h 90% 0.0 mm 0.00 W/m2
20:10 9.2 °C 7.6 °C 985.0 hPa ENE 4.7 km/h 8.0 km/h 90% 0.0 mm 0.00 W/m2
20:15 9.2 °C 7.6 °C 985.0 hPa NE 1.4 km/h 4.8 km/h 90% 0.0 mm 0.00 W/m2
20:20 9.2 °C 7.6 °C 985.0 hPa NE 3.2 km/h 16.1 km/h 90% 0.0 mm 0.00 W/m2
20:25 9.2 °C 7.6 °C 985.0 hPa NE 6.4 km/h 12.9 km/h 90% 0.0 mm 0.00 W/m2
20:30 9.2 °C 7.8 °C 985.0 hPa ENE 3.2 km/h 6.4 km/h 91% 0.0 mm 0.00 W/m2
20:35 9.3 °C 7.9 °C 985.3 hPa ENE 11.1 km/h 14.5 km/h 91% 0.0 mm 0.00 W/m2
20:40 9.3 °C 7.9 °C 985.3 hPa ENE 6.4 km/h 11.3 km/h 91% 0.0 mm 0.00 W/m2
20:45 9.3 °C 7.9 °C 985.3 hPa NE 3.2 km/h 11.3 km/h 91% 0.0 mm 0.00 W/m2
20:50 9.3 °C 7.9 °C 985.3 hPa NE 7.9 km/h 11.3 km/h 91% 0.0 mm 0.00 W/m2
20:55 9.3 °C 7.9 °C 985.3 hPa NE 6.4 km/h 11.3 km/h 91% 0.0 mm 0.00 W/m2
21:00 9.3 °C 7.9 °C 985.3 hPa ENE 7.9 km/h 14.5 km/h 91% 0.0 mm 0.00 W/m2
21:05 9.3 °C 7.9 °C 985.7 hPa Calm   3.2 km/h 91% 0.0 mm 0.00 W/m2
21:10 9.3 °C 7.9 °C 985.7 hPa NE 4.7 km/h 8.0 km/h 91% 0.0 mm 0.00 W/m2
21:15 9.4 °C 8.0 °C 985.7 hPa ENE 3.2 km/h 12.9 km/h 91% 0.0 mm 0.00 W/m2
21:20 9.3 °C 7.9 °C 985.7 hPa ENE 4.7 km/h 16.1 km/h 91% 0.0 mm 0.00 W/m2
21:25 9.4 °C 8.0 °C 986.0 hPa ENE 6.4 km/h 11.3 km/h 91% 0.0 mm 0.00 W/m2
21:30 9.4 °C 8.0 °C 986.0 hPa ENE 4.7 km/h 8.0 km/h 91% 0.0 mm 0.00 W/m2
21:35 9.4 °C 8.0 °C 986.0 hPa NE 6.4 km/h 12.9 km/h 91% 0.0 mm 0.00 W/m2
21:40 9.3 °C 7.9 °C 986.0 hPa NE 3.2 km/h 6.4 km/h 91% 0.0 mm 0.00 W/m2
21:45 9.4 °C 8.0 °C 986.3 hPa NE 4.7 km/h 11.3 km/h 91% 0.0 mm 0.00 W/m2
21:50 9.4 °C 8.0 °C 986.3 hPa ENE 7.9 km/h 8.0 km/h 91% 0.0 mm 0.00 W/m2
21:55 9.4 °C 8.0 °C 986.3 hPa ENE 1.4 km/h 6.4 km/h 91% 0.0 mm 0.00 W/m2
22:00 9.4 °C 8.0 °C 986.3 hPa NE 1.4 km/h 16.1 km/h 91% 0.0 mm 0.00 W/m2
22:05 9.4 °C 8.0 °C 986.3 hPa NE 4.7 km/h 8.0 km/h 91% 0.0 mm 0.00 W/m2
22:10 9.4 °C 8.0 °C 986.7 hPa Calm   8.0 km/h 91% 0.0 mm 0.00 W/m2
22:15 9.4 °C 8.0 °C 986.7 hPa Calm   8.0 km/h 91% 0.0 mm 0.00 W/m2
22:20 9.4 °C 8.0 °C 986.7 hPa NE 1.4 km/h 11.3 km/h 91% 0.0 mm 0.00 W/m2
22:25 9.4 °C 8.0 °C 986.7 hPa ENE 7.9 km/h 11.3 km/h 91% 0.0 mm 0.00 W/m2
22:30 9.4 °C 8.0 °C 986.7 hPa ENE 7.9 km/h 17.7 km/h 91% 0.0 mm 0.00 W/m2
22:35 9.4 °C 8.0 °C 986.7 hPa NE 6.4 km/h 12.9 km/h 91% 0.0 mm 0.00 W/m2
22:40 9.3 °C 7.9 °C 987.0 hPa NE 6.4 km/h 16.1 km/h 91% 0.0 mm 0.00 W/m2
22:45 9.3 °C 7.9 °C 987.0 hPa Calm   12.9 km/h 91% 0.0 mm 0.00 W/m2
22:50 9.3 °C 7.9 °C 987.0 hPa NE 6.4 km/h 8.0 km/h 91% 0.0 mm 0.00 W/m2
22:55 9.3 °C 7.9 °C 987.0 hPa ENE 4.7 km/h 17.7 km/h 91% 0.0 mm 0.00 W/m2
23:00 9.3 °C 7.9 °C 987.0 hPa East 13.0 km/h 12.9 km/h 91% 0.0 mm 0.00 W/m2
23:05 9.3 °C 7.9 °C 987.4 hPa ENE 7.9 km/h 16.1 km/h 91% 0.0 mm 0.00 W/m2
23:10 9.3 °C 7.9 °C 987.4 hPa NE 7.9 km/h 11.3 km/h 91% 0.0 mm 0.00 W/m2
23:15 9.3 °C 7.9 °C 987.4 hPa NNE 9.7 km/h 17.7 km/h 91% 0.0 mm 0.00 W/m2
23:20 9.3 °C 7.9 °C 987.7 hPa NNE 7.9 km/h 14.5 km/h 91% 0.0 mm 0.00 W/m2
23:25 9.3 °C 8.1 °C 987.7 hPa NE 4.7 km/h 12.9 km/h 92% 0.0 mm 0.00 W/m2
23:30 9.3 °C 8.1 °C 987.7 hPa NE 3.2 km/h 9.7 km/h 92% 0.0 mm 0.00 W/m2
23:35 9.3 °C 7.9 °C 987.7 hPa NE 11.1 km/h 11.3 km/h 91% 0.0 mm 0.00 W/m2
23:40 9.4 °C 8.2 °C 988.0 hPa NE 7.9 km/h 12.9 km/h 92% 0.0 mm 0.00 W/m2
23:45 9.4 °C 8.0 °C 988.0 hPa NE 6.4 km/h 16.1 km/h 91% 0.0 mm 0.00 W/m2
23:50 9.4 °C 8.0 °C 988.0 hPa ENE 7.9 km/h 16.1 km/h 91% 0.0 mm 0.00 W/m2
23:55 9.3 °C 8.1 °C 988.0 hPa Calm   8.0 km/h 92% 0.0 mm 0.00 W/m2